sensor_id;sensor_type;location;lat;lon;timestamp;P1;durP1;ratioP1;P2;durP2;ratioP2
65757;SDS011;52495;52.208;5.158;2022-10-03T00:00:14;9.38;;;2.30;;
65757;SDS011;52495;52.208;5.158;2022-10-03T00:05:45;5.28;;;2.00;;
65757;SDS011;52495;52.208;5.158;2022-10-03T00:08:29;4.25;;;1.52;;
65757;SDS011;52495;52.208;5.158;2022-10-03T00:11:06;7.35;;;1.50;;
65757;SDS011;52495;52.208;5.158;2022-10-03T00:13:43;8.93;;;2.00;;
65757;SDS011;52495;52.208;5.158;2022-10-03T00:16:21;8.68;;;1.55;;
65757;SDS011;52495;52.208;5.158;2022-10-03T00:18:56;4.93;;;1.90;;
65757;SDS011;52495;52.208;5.158;2022-10-03T00:21:32;4.43;;;1.50;;
65757;SDS011;52495;52.208;5.158;2022-10-03T00:24:15;7.85;;;1.92;;
65757;SDS011;52495;52.208;5.158;2022-10-03T00:26:54;5.40;;;1.83;;
65757;SDS011;52495;52.208;5.158;2022-10-03T00:29:39;5.22;;;1.77;;
65757;SDS011;52495;52.208;5.158;2022-10-03T00:35:14;4.97;;;1.60;;
65757;SDS011;52495;52.208;5.158;2022-10-03T00:37:55;8.27;;;1.90;;
65757;SDS011;52495;52.208;5.158;2022-10-03T00:40:35;3.65;;;1.60;;
65757;SDS011;52495;52.208;5.158;2022-10-03T00:46:27;5.75;;;1.77;;
65757;SDS011;52495;52.208;5.158;2022-10-03T00:49:23;9.75;;;1.60;;
65757;SDS011;52495;52.208;5.158;2022-10-03T00:52:15;4.55;;;1.65;;
65757;SDS011;52495;52.208;5.158;2022-10-03T00:55:06;4.63;;;1.55;;
65757;SDS011;52495;52.208;5.158;2022-10-03T01:01:02;4.32;;;1.45;;
65757;SDS011;52495;52.208;5.158;2022-10-03T01:03:49;3.40;;;1.27;;
65757;SDS011;52495;52.208;5.158;2022-10-03T01:06:26;5.35;;;1.40;;
65757;SDS011;52495;52.208;5.158;2022-10-03T01:09:05;4.93;;;1.45;;
65757;SDS011;52495;52.208;5.158;2022-10-03T01:11:51;2.35;;;1.48;;
65757;SDS011;52495;52.208;5.158;2022-10-03T01:14:32;5.15;;;1.52;;
65757;SDS011;52495;52.208;5.158;2022-10-03T01:17:15;4.57;;;1.42;;
65757;SDS011;52495;52.208;5.158;2022-10-03T01:19:56;3.63;;;1.60;;
65757;SDS011;52495;52.208;5.158;2022-10-03T01:22:49;3.92;;;1.40;;
65757;SDS011;52495;52.208;5.158;2022-10-03T01:25:37;5.18;;;1.83;;
65757;SDS011;52495;52.208;5.158;2022-10-03T01:28:25;9.07;;;1.98;;
65757;SDS011;52495;52.208;5.158;2022-10-03T01:31:22;4.95;;;1.40;;
65757;SDS011;52495;52.208;5.158;2022-10-03T01:33:55;3.78;;;1.42;;
65757;SDS011;52495;52.208;5.158;2022-10-03T01:36:27;5.47;;;1.58;;
65757;SDS011;52495;52.208;5.158;2022-10-03T01:39:05;2.40;;;1.20;;
65757;SDS011;52495;52.208;5.158;2022-10-03T01:41:43;7.38;;;1.63;;
65757;SDS011;52495;52.208;5.158;2022-10-03T01:44:17;4.70;;;1.35;;
65757;SDS011;52495;52.208;5.158;2022-10-03T01:46:49;4.25;;;1.38;;
65757;SDS011;52495;52.208;5.158;2022-10-03T01:49:23;5.38;;;1.30;;
65757;SDS011;52495;52.208;5.158;2022-10-03T01:51:57;3.42;;;1.30;;
65757;SDS011;52495;52.208;5.158;2022-10-03T01:54:31;5.80;;;1.50;;
65757;SDS011;52495;52.208;5.158;2022-10-03T01:57:09;6.90;;;1.70;;
65757;SDS011;52495;52.208;5.158;2022-10-03T01:59:44;7.43;;;1.80;;
65757;SDS011;52495;52.208;5.158;2022-10-03T02:02:21;5.53;;;1.55;;
65757;SDS011;52495;52.208;5.158;2022-10-03T02:04:57;8.15;;;1.70;;
65757;SDS011;52495;52.208;5.158;2022-10-03T02:07:34;6.60;;;1.48;;
65757;SDS011;52495;52.208;5.158;2022-10-03T02:10:10;6.75;;;1.55;;
65757;SDS011;52495;52.208;5.158;2022-10-03T02:12:47;4.88;;;1.60;;
65757;SDS011;52495;52.208;5.158;2022-10-03T02:15:23;8.55;;;1.92;;
65757;SDS011;52495;52.208;5.158;2022-10-03T02:17:54;6.30;;;1.70;;
65757;SDS011;52495;52.208;5.158;2022-10-03T02:20:24;6.10;;;2.00;;
65757;SDS011;52495;52.208;5.158;2022-10-03T02:22:59;5.25;;;1.50;;
65757;SDS011;52495;52.208;5.158;2022-10-03T02:25:30;6.55;;;1.73;;
65757;SDS011;52495;52.208;5.158;2022-10-03T02:34:21;3.88;;;1.40;;
65757;SDS011;52495;52.208;5.158;2022-10-03T02:46:25;4.05;;;1.65;;
65757;SDS011;52495;52.208;5.158;2022-10-03T02:49:30;8.82;;;1.40;;
65757;SDS011;52495;52.208;5.158;2022-10-03T02:52:19;3.40;;;1.30;;
65757;SDS011;52495;52.208;5.158;2022-10-03T02:55:10;4.20;;;1.40;;
65757;SDS011;52495;52.208;5.158;2022-10-03T03:04:15;4.45;;;1.50;;
65757;SDS011;52495;52.208;5.158;2022-10-03T03:07:20;6.10;;;1.83;;
65757;SDS011;52495;52.208;5.158;2022-10-03T03:10:21;3.92;;;1.70;;
65757;SDS011;52495;52.208;5.158;2022-10-03T03:13:05;6.93;;;2.10;;
65757;SDS011;52495;52.208;5.158;2022-10-03T03:19:17;3.17;;;1.77;;
65757;SDS011;52495;52.208;5.158;2022-10-03T03:22:11;4.55;;;1.80;;
65757;SDS011;52495;52.208;5.158;2022-10-03T03:24:58;5.47;;;1.83;;
65757;SDS011;52495;52.208;5.158;2022-10-03T03:27:41;6.10;;;1.70;;
65757;SDS011;52495;52.208;5.158;2022-10-03T03:30:18;2.75;;;1.40;;
65757;SDS011;52495;52.208;5.158;2022-10-03T03:32:50;6.40;;;1.98;;
65757;SDS011;52495;52.208;5.158;2022-10-03T03:35:28;3.55;;;1.73;;
65757;SDS011;52495;52.208;5.158;2022-10-03T03:38:11;5.15;;;1.58;;
65757;SDS011;52495;52.208;5.158;2022-10-03T03:40:50;3.95;;;1.40;;
65757;SDS011;52495;52.208;5.158;2022-10-03T03:43:32;5.13;;;1.50;;
65757;SDS011;52495;52.208;5.158;2022-10-03T03:46:13;3.58;;;1.20;;
65757;SDS011;52495;52.208;5.158;2022-10-03T03:48:57;7.35;;;1.73;;
65757;SDS011;52495;52.208;5.158;2022-10-03T03:54:24;3.47;;;1.70;;
65757;SDS011;52495;52.208;5.158;2022-10-03T03:57:16;3.65;;;1.95;;
65757;SDS011;52495;52.208;5.158;2022-10-03T04:00:11;3.88;;;1.17;;
65757;SDS011;52495;52.208;5.158;2022-10-03T04:05:56;4.78;;;1.65;;
65757;SDS011;52495;52.208;5.158;2022-10-03T04:08:44;6.65;;;1.42;;
65757;SDS011;52495;52.208;5.158;2022-10-03T04:11:26;4.07;;;1.45;;
65757;SDS011;52495;52.208;5.158;2022-10-03T04:14:14;4.95;;;1.25;;
65757;SDS011;52495;52.208;5.158;2022-10-03T04:17:09;1.80;;;0.80;;
65757;SDS011;52495;52.208;5.158;2022-10-03T04:20:11;3.00;;;1.70;;
65757;SDS011;52495;52.208;5.158;2022-10-03T04:22:51;2.63;;;1.00;;
65757;SDS011;52495;52.208;5.158;2022-10-03T04:25:40;2.63;;;1.10;;
65757;SDS011;52495;52.208;5.158;2022-10-03T04:28:22;3.53;;;1.00;;
65757;SDS011;52495;52.208;5.158;2022-10-03T04:31:12;3.15;;;1.02;;
65757;SDS011;52495;52.208;5.158;2022-10-03T04:33:55;3.35;;;1.23;;
65757;SDS011;52495;52.208;5.158;2022-10-03T04:36:39;2.08;;;1.10;;
65757;SDS011;52495;52.208;5.158;2022-10-03T04:39:29;2.22;;;1.00;;
65757;SDS011;52495;52.208;5.158;2022-10-03T04:42:08;1.98;;;0.95;;
65757;SDS011;52495;52.208;5.158;2022-10-03T04:44:46;4.05;;;1.00;;
65757;SDS011;52495;52.208;5.158;2022-10-03T04:47:27;1.40;;;0.98;;
65757;SDS011;52495;52.208;5.158;2022-10-03T04:50:01;3.03;;;1.08;;
65757;SDS011;52495;52.208;5.158;2022-10-03T04:52:40;4.00;;;1.83;;
65757;SDS011;52495;52.208;5.158;2022-10-03T04:55:18;2.35;;;1.15;;
65757;SDS011;52495;52.208;5.158;2022-10-03T04:57:51;1.55;;;0.98;;
65757;SDS011;52495;52.208;5.158;2022-10-03T05:00:24;2.17;;;0.90;;
65757;SDS011;52495;52.208;5.158;2022-10-03T05:03:00;2.78;;;1.15;;
65757;SDS011;52495;52.208;5.158;2022-10-03T05:05:34;2.08;;;0.90;;
65757;SDS011;52495;52.208;5.158;2022-10-03T05:08:18;2.22;;;1.17;;
65757;SDS011;52495;52.208;5.158;2022-10-03T05:10:59;1.02;;;0.90;;
65757;SDS011;52495;52.208;5.158;2022-10-03T05:13:42;10.07;;;1.33;;
65757;SDS011;52495;52.208;5.158;2022-10-03T05:16:19;2.78;;;1.08;;
65757;SDS011;52495;52.208;5.158;2022-10-03T05:18:55;1.65;;;1.10;;
65757;SDS011;52495;52.208;5.158;2022-10-03T05:21:30;2.50;;;1.33;;
65757;SDS011;52495;52.208;5.158;2022-10-03T05:24:04;4.05;;;1.27;;
65757;SDS011;52495;52.208;5.158;2022-10-03T05:26:42;4.57;;;1.52;;
65757;SDS011;52495;52.208;5.158;2022-10-03T05:29:19;2.47;;;1.35;;
65757;SDS011;52495;52.208;5.158;2022-10-03T05:31:57;5.05;;;1.42;;
65757;SDS011;52495;52.208;5.158;2022-10-03T05:34:37;4.50;;;2.07;;
65757;SDS011;52495;52.208;5.158;2022-10-03T05:37:21;5.40;;;2.05;;
65757;SDS011;52495;52.208;5.158;2022-10-03T05:40:05;3.13;;;1.80;;
65757;SDS011;52495;52.208;5.158;2022-10-03T05:45:34;5.30;;;1.90;;
65757;SDS011;52495;52.208;5.158;2022-10-03T05:48:14;5.50;;;1.58;;
65757;SDS011;52495;52.208;5.158;2022-10-03T05:50:55;5.70;;;1.58;;
65757;SDS011;52495;52.208;5.158;2022-10-03T05:56:46;6.60;;;1.85;;
65757;SDS011;52495;52.208;5.158;2022-10-03T06:05:55;4.60;;;1.80;;
65757;SDS011;52495;52.208;5.158;2022-10-03T06:14:34;4.53;;;1.63;;
65757;SDS011;52495;52.208;5.158;2022-10-03T06:17:41;5.53;;;1.67;;
65757;SDS011;52495;52.208;5.158;2022-10-03T06:23:28;3.88;;;1.30;;
65757;SDS011;52495;52.208;5.158;2022-10-03T06:29:02;8.27;;;1.70;;
65757;SDS011;52495;52.208;5.158;2022-10-03T06:32:03;4.03;;;1.50;;
65757;SDS011;52495;52.208;5.158;2022-10-03T06:38:13;8.50;;;3.75;;
65757;SDS011;52495;52.208;5.158;2022-10-03T06:44:33;5.88;;;1.88;;
65757;SDS011;52495;52.208;5.158;2022-10-03T06:47:17;5.30;;;2.00;;
65757;SDS011;52495;52.208;5.158;2022-10-03T06:50:16;11.15;;;3.13;;
65757;SDS011;52495;52.208;5.158;2022-10-03T06:52:59;9.18;;;2.00;;
65757;SDS011;52495;52.208;5.158;2022-10-03T06:55:56;7.40;;;3.42;;
65757;SDS011;52495;52.208;5.158;2022-10-03T06:58:49;8.18;;;2.40;;
65757;SDS011;52495;52.208;5.158;2022-10-03T07:01:45;8.85;;;2.80;;
65757;SDS011;52495;52.208;5.158;2022-10-03T07:07:23;8.10;;;2.53;;
65757;SDS011;52495;52.208;5.158;2022-10-03T07:10:17;10.70;;;2.72;;
65757;SDS011;52495;52.208;5.158;2022-10-03T07:13:10;5.25;;;2.05;;
65757;SDS011;52495;52.208;5.158;2022-10-03T07:19:07;9.85;;;2.55;;
65757;SDS011;52495;52.208;5.158;2022-10-03T07:22:10;8.35;;;2.75;;
65757;SDS011;52495;52.208;5.158;2022-10-03T07:31:00;9.65;;;2.30;;
65757;SDS011;52495;52.208;5.158;2022-10-03T07:36:47;11.45;;;2.92;;
65757;SDS011;52495;52.208;5.158;2022-10-03T07:40:11;7.95;;;2.67;;
65757;SDS011;52495;52.208;5.158;2022-10-03T07:46:01;8.32;;;2.97;;
65757;SDS011;52495;52.208;5.158;2022-10-03T07:48:48;7.57;;;2.63;;
65757;SDS011;52495;52.208;5.158;2022-10-03T07:51:30;14.50;;;3.35;;
65757;SDS011;52495;52.208;5.158;2022-10-03T07:54:15;8.13;;;3.10;;
65757;SDS011;52495;52.208;5.158;2022-10-03T07:57:06;9.88;;;4.05;;
65757;SDS011;52495;52.208;5.158;2022-10-03T07:59:53;13.05;;;3.92;;
65757;SDS011;52495;52.208;5.158;2022-10-03T08:02:43;7.47;;;3.60;;
65757;SDS011;52495;52.208;5.158;2022-10-03T08:05:39;12.68;;;3.55;;
65757;SDS011;52495;52.208;5.158;2022-10-03T08:08:22;8.50;;;3.35;;
65757;SDS011;52495;52.208;5.158;2022-10-03T08:11:07;9.63;;;3.35;;
65757;SDS011;52495;52.208;5.158;2022-10-03T08:13:52;10.90;;;3.30;;
65757;SDS011;52495;52.208;5.158;2022-10-03T08:16:42;8.73;;;2.72;;
65757;SDS011;52495;52.208;5.158;2022-10-03T08:25:09;8.20;;;3.08;;
65757;SDS011;52495;52.208;5.158;2022-10-03T08:27:57;8.63;;;2.83;;
65757;SDS011;52495;52.208;5.158;2022-10-03T08:30:42;8.15;;;3.00;;
65757;SDS011;52495;52.208;5.158;2022-10-03T08:33:31;8.80;;;2.90;;
65757;SDS011;52495;52.208;5.158;2022-10-03T08:36:19;12.43;;;3.40;;
65757;SDS011;52495;52.208;5.158;2022-10-03T08:39:27;8.05;;;3.35;;
65757;SDS011;52495;52.208;5.158;2022-10-03T08:42:21;9.13;;;3.25;;
65757;SDS011;52495;52.208;5.158;2022-10-03T08:51:40;11.88;;;3.83;;
65757;SDS011;52495;52.208;5.158;2022-10-03T08:54:23;9.15;;;3.20;;
65757;SDS011;52495;52.208;5.158;2022-10-03T09:00:13;15.68;;;4.00;;
65757;SDS011;52495;52.208;5.158;2022-10-03T09:06:04;12.48;;;3.85;;
65757;SDS011;52495;52.208;5.158;2022-10-03T09:08:54;12.60;;;3.38;;
65757;SDS011;52495;52.208;5.158;2022-10-03T09:11:40;10.32;;;3.22;;
65757;SDS011;52495;52.208;5.158;2022-10-03T09:14:32;11.75;;;3.88;;
65757;SDS011;52495;52.208;5.158;2022-10-03T09:17:27;10.90;;;3.08;;
65757;SDS011;52495;52.208;5.158;2022-10-03T09:20:18;8.00;;;3.33;;
65757;SDS011;52495;52.208;5.158;2022-10-03T09:32:37;11.90;;;3.10;;
65757;SDS011;52495;52.208;5.158;2022-10-03T09:35:33;13.35;;;3.65;;
65757;SDS011;52495;52.208;5.158;2022-10-03T09:44:38;11.82;;;2.60;;
65757;SDS011;52495;52.208;5.158;2022-10-03T09:47:40;10.85;;;3.17;;
65757;SDS011;52495;52.208;5.158;2022-10-03T09:53:40;9.52;;;2.83;;
65757;SDS011;52495;52.208;5.158;2022-10-03T09:56:40;7.25;;;2.40;;
65757;SDS011;52495;52.208;5.158;2022-10-03T10:03:03;5.47;;;2.10;;
65757;SDS011;52495;52.208;5.158;2022-10-03T10:09:06;8.02;;;2.28;;
65757;SDS011;52495;52.208;5.158;2022-10-03T10:12:21;8.00;;;2.30;;
65757;SDS011;52495;52.208;5.158;2022-10-03T10:18:21;4.55;;;1.98;;
65757;SDS011;52495;52.208;5.158;2022-10-03T10:21:22;7.03;;;2.03;;
65757;SDS011;52495;52.208;5.158;2022-10-03T10:30:13;7.22;;;2.17;;
65757;SDS011;52495;52.208;5.158;2022-10-03T10:32:57;8.43;;;1.90;;
65757;SDS011;52495;52.208;5.158;2022-10-03T10:35:54;11.23;;;2.40;;
65757;SDS011;52495;52.208;5.158;2022-10-03T10:41:46;12.10;;;2.08;;
65757;SDS011;52495;52.208;5.158;2022-10-03T10:45:00;7.93;;;2.05;;
65757;SDS011;52495;52.208;5.158;2022-10-03T10:48:02;5.40;;;1.75;;
65757;SDS011;52495;52.208;5.158;2022-10-03T10:54:23;6.18;;;1.88;;
65757;SDS011;52495;52.208;5.158;2022-10-03T10:57:19;7.60;;;2.10;;
65757;SDS011;52495;52.208;5.158;2022-10-03T11:00:05;7.30;;;2.60;;
65757;SDS011;52495;52.208;5.158;2022-10-03T11:15:07;8.60;;;2.42;;
65757;SDS011;52495;52.208;5.158;2022-10-03T11:21:18;7.97;;;2.00;;
65757;SDS011;52495;52.208;5.158;2022-10-03T11:24:21;10.02;;;6.80;;
65757;SDS011;52495;52.208;5.158;2022-10-03T11:27:15;6.88;;;2.08;;
65757;SDS011;52495;52.208;5.158;2022-10-03T11:30:22;10.65;;;1.98;;
65757;SDS011;52495;52.208;5.158;2022-10-03T11:33:30;8.65;;;1.83;;
65757;SDS011;52495;52.208;5.158;2022-10-03T11:39:22;8.98;;;1.75;;
65757;SDS011;52495;52.208;5.158;2022-10-03T11:41:59;6.63;;;1.73;;
65757;SDS011;52495;52.208;5.158;2022-10-03T11:44:31;9.15;;;2.15;;
65757;SDS011;52495;52.208;5.158;2022-10-03T11:53:04;11.20;;;2.80;;
65757;SDS011;52495;52.208;5.158;2022-10-03T11:55:37;9.32;;;2.13;;
65757;SDS011;52495;52.208;5.158;2022-10-03T11:58:13;6.03;;;1.77;;
65757;SDS011;52495;52.208;5.158;2022-10-03T12:00:58;11.63;;;2.10;;
65757;SDS011;52495;52.208;5.158;2022-10-03T12:03:43;10.90;;;2.17;;
65757;SDS011;52495;52.208;5.158;2022-10-03T12:06:20;7.07;;;1.83;;
65757;SDS011;52495;52.208;5.158;2022-10-03T12:09:25;10.65;;;1.95;;
65757;SDS011;52495;52.208;5.158;2022-10-03T12:12:02;5.85;;;1.88;;
65757;SDS011;52495;52.208;5.158;2022-10-03T12:14:37;5.38;;;1.75;;
